createdAt,value
2022-10-25T00:01:36.324Z,21.11
2022-10-25T00:04:03.051Z,21.10
2022-10-25T00:06:29.673Z,21.09
2022-10-25T00:08:56.315Z,21.08
2022-10-25T00:11:24.135Z,21.08
2022-10-25T00:13:51.889Z,21.08
2022-10-25T00:16:20.837Z,21.08
2022-10-25T00:18:47.786Z,21.07
2022-10-25T00:21:14.501Z,21.08
2022-10-25T00:23:41.269Z,21.07
2022-10-25T00:26:09.066Z,21.08
2022-10-25T00:28:35.800Z,21.06
2022-10-25T00:31:03.601Z,21.07
2022-10-25T00:33:31.642Z,21.07
2022-10-25T00:36:07.572Z,21.06
2022-10-25T00:38:34.464Z,21.04
2022-10-25T00:41:01.086Z,21.03
2022-10-25T00:43:31.648Z,21.02
2022-10-25T00:45:58.591Z,21.00
2022-10-25T00:48:25.355Z,21.02
2022-10-25T00:50:53.818Z,21.00
2022-10-25T00:53:22.677Z,21.00
2022-10-25T00:55:52.950Z,21.00
2022-10-25T00:58:22.624Z,20.99
2022-10-25T01:00:49.330Z,21.00
2022-10-25T01:03:17.026Z,20.91
2022-10-25T01:05:44.085Z,20.90
2022-10-25T01:08:11.375Z,20.90
2022-10-25T01:10:38.575Z,20.90
2022-10-25T01:13:05.245Z,20.89
2022-10-25T01:15:40.376Z,20.88
2022-10-25T01:18:27.183Z,20.88
2022-10-25T01:20:53.751Z,20.84
2022-10-25T01:23:20.376Z,20.86
2022-10-25T01:25:58.964Z,20.85
2022-10-25T01:28:47.827Z,20.85
2022-10-25T01:31:17.516Z,20.86
2022-10-25T01:33:47.081Z,20.86
2022-10-25T01:36:16.636Z,20.84
2022-10-25T01:38:49.066Z,20.85
2022-10-25T01:41:15.613Z,20.86
2022-10-25T01:44:00.693Z,20.86
2022-10-25T01:46:27.245Z,20.84
2022-10-25T01:48:58.957Z,20.84
2022-10-25T01:51:26.443Z,20.84
2022-10-25T01:53:53.011Z,20.84
2022-10-25T01:56:30.377Z,20.85
2022-10-25T01:59:09.027Z,20.84
2022-10-25T02:01:54.476Z,20.84
2022-10-25T02:04:41.291Z,20.83
2022-10-25T02:07:10.739Z,20.83
2022-10-25T02:09:44.990Z,20.83
2022-10-25T02:12:15.398Z,20.83
2022-10-25T02:14:53.440Z,20.82
2022-10-25T02:17:23.331Z,20.84
2022-10-25T02:19:51.632Z,20.84
2022-10-25T02:22:19.730Z,20.85
2022-10-25T02:24:47.556Z,20.83
2022-10-25T02:27:14.589Z,20.84
2022-10-25T02:29:41.843Z,20.84
2022-10-25T02:32:08.749Z,20.85
2022-10-25T02:34:35.648Z,20.84
2022-10-25T02:37:02.387Z,20.83
2022-10-25T02:39:31.432Z,20.85
2022-10-25T02:41:59.046Z,20.83
2022-10-25T02:44:25.645Z,20.84
2022-10-25T02:46:52.233Z,20.84
2022-10-25T02:49:18.796Z,20.84
2022-10-25T02:51:45.585Z,20.83
2022-10-25T02:54:12.200Z,20.83
2022-10-25T02:56:38.858Z,20.84
2022-10-25T02:59:05.905Z,20.83
2022-10-25T03:01:32.722Z,20.82
2022-10-25T03:03:59.515Z,20.83
2022-10-25T03:06:26.101Z,20.84
2022-10-25T03:08:52.670Z,20.83
2022-10-25T03:11:19.493Z,20.84
2022-10-25T03:13:46.109Z,20.83
2022-10-25T03:16:13.042Z,20.83
2022-10-25T03:18:39.656Z,20.84
2022-10-25T03:21:06.674Z,20.84
2022-10-25T03:23:33.309Z,20.83
2022-10-25T03:26:00.895Z,20.83
2022-10-25T03:28:28.214Z,20.82
2022-10-25T03:30:55.176Z,20.84
2022-10-25T03:33:26.122Z,20.84
2022-10-25T03:35:53.142Z,20.84
2022-10-25T03:38:20.191Z,20.83
2022-10-25T03:40:46.979Z,20.83
2022-10-25T03:43:18.494Z,20.84
2022-10-25T03:45:45.313Z,20.84
2022-10-25T03:48:11.928Z,20.83
2022-10-25T03:50:38.686Z,20.83
2022-10-25T03:53:05.439Z,20.82
2022-10-25T03:55:32.746Z,20.83
2022-10-25T03:57:59.317Z,20.82
2022-10-25T04:00:26.038Z,20.82
2022-10-25T04:03:00.871Z,20.82
2022-10-25T04:05:29.567Z,20.82
2022-10-25T04:07:56.155Z,20.80
2022-10-25T04:10:25.013Z,20.80
2022-10-25T04:12:54.302Z,20.80
2022-10-25T04:15:21.610Z,20.80
2022-10-25T04:17:51.950Z,20.79
2022-10-25T04:20:18.681Z,20.80
2022-10-25T04:22:45.312Z,20.80
2022-10-25T04:25:12.102Z,20.80
2022-10-25T04:27:38.923Z,20.80
2022-10-25T04:30:05.646Z,20.79
2022-10-25T04:32:32.243Z,20.79
2022-10-25T04:34:58.814Z,20.78
2022-10-25T04:37:25.436Z,20.80
2022-10-25T04:39:52.110Z,20.78
2022-10-25T04:42:19.712Z,20.78
2022-10-25T04:44:46.404Z,20.77
2022-10-25T04:47:28.469Z,20.78
2022-10-25T04:49:55.052Z,20.76
2022-10-25T04:52:21.911Z,20.77
2022-10-25T04:54:48.503Z,20.78
2022-10-25T04:57:15.120Z,20.76
2022-10-25T04:59:41.847Z,20.77
2022-10-25T05:02:08.420Z,20.77
2022-10-25T05:04:35.002Z,20.76
2022-10-25T05:07:01.699Z,20.76
2022-10-25T05:09:28.284Z,20.76
2022-10-25T05:11:54.927Z,20.74
2022-10-25T05:14:21.632Z,20.74
2022-10-25T05:16:48.356Z,20.73
2022-10-25T05:19:15.062Z,20.73
2022-10-25T05:21:41.624Z,20.73
2022-10-25T05:24:08.261Z,20.72
2022-10-25T05:26:34.892Z,20.72
2022-10-25T05:29:02.336Z,20.73
2022-10-25T05:31:30.394Z,20.74
2022-10-25T05:34:00.398Z,20.75
2022-10-25T05:36:29.609Z,20.75
2022-10-25T05:38:56.518Z,20.78
2022-10-25T05:41:23.254Z,20.80
2022-10-25T05:43:49.872Z,20.82
2022-10-25T05:46:18.340Z,20.86
2022-10-25T05:48:48.678Z,20.92
2022-10-25T05:51:33.013Z,20.96
2022-10-25T05:54:02.623Z,21.01
2022-10-25T05:56:30.275Z,21.05
2022-10-25T05:58:57.477Z,21.08
2022-10-25T06:01:26.347Z,21.12
2022-10-25T06:03:54.189Z,21.14
2022-10-25T06:06:21.416Z,21.18
2022-10-25T06:08:48.085Z,21.21
2022-10-25T06:11:17.139Z,21.23
2022-10-25T06:13:43.922Z,21.26
2022-10-25T06:16:13.995Z,21.28
2022-10-25T06:18:40.639Z,21.31
2022-10-25T06:21:08.776Z,21.33
2022-10-25T06:23:38.531Z,21.35
2022-10-25T06:26:09.481Z,21.35
2022-10-25T06:28:36.683Z,21.39
2022-10-25T06:31:08.118Z,21.40
2022-10-25T06:33:35.184Z,21.40
2022-10-25T06:36:02.448Z,21.41
2022-10-25T06:38:29.634Z,21.43
2022-10-25T06:41:00.910Z,21.44
2022-10-25T06:43:29.066Z,21.44
2022-10-25T06:45:56.051Z,21.45
2022-10-25T06:48:22.743Z,21.47
2022-10-25T06:50:52.110Z,21.48
2022-10-25T06:53:19.708Z,21.47
2022-10-25T06:55:47.458Z,21.50
2022-10-25T06:58:14.817Z,21.50
2022-10-25T07:01:03.399Z,21.51
2022-10-25T07:03:35.086Z,21.52
2022-10-25T07:06:03.015Z,21.52
2022-10-25T07:08:29.751Z,21.54
2022-10-25T07:10:56.800Z,21.54
2022-10-25T07:13:23.552Z,21.55
2022-10-25T07:15:50.124Z,21.54
2022-10-25T07:18:17.218Z,21.55
2022-10-25T07:20:48.669Z,21.55
2022-10-25T07:23:17.385Z,21.55
2022-10-25T07:25:44.003Z,21.53
2022-10-25T07:28:12.327Z,21.51
2022-10-25T07:30:43.912Z,21.52
2022-10-25T07:33:13.563Z,21.51
2022-10-25T07:35:52.239Z,21.49
2022-10-25T07:38:27.920Z,21.50
2022-10-25T07:41:01.330Z,21.50
2022-10-25T07:43:35.309Z,21.51
2022-10-25T07:46:02.151Z,21.49
2022-10-25T07:48:28.966Z,21.51
2022-10-25T07:50:55.874Z,21.50
2022-10-25T07:53:22.540Z,21.51
2022-10-25T07:55:52.893Z,21.44
2022-10-25T07:58:19.504Z,21.31
2022-10-25T08:00:46.345Z,21.23
2022-10-25T08:03:13.556Z,21.30
2022-10-25T08:05:40.293Z,21.37
2022-10-25T08:08:06.961Z,21.47
2022-10-25T08:10:33.655Z,21.50
2022-10-25T08:13:00.395Z,21.56
2022-10-25T08:15:37.639Z,21.59
2022-10-25T08:18:09.677Z,21.62
2022-10-25T08:21:01.315Z,21.64
2022-10-25T08:23:23.756Z,21.69
2022-10-25T08:25:50.462Z,21.70
2022-10-25T08:28:17.317Z,21.70
2022-10-25T08:30:44.223Z,21.71
2022-10-25T08:33:11.883Z,21.72
2022-10-25T08:35:38.881Z,21.73
2022-10-25T08:38:05.756Z,21.74
2022-10-25T08:40:50.799Z,21.71
2022-10-25T08:43:33.786Z,21.70
2022-10-25T08:46:03.208Z,21.69
2022-10-25T08:48:34.504Z,21.69
2022-10-25T08:51:03.741Z,21.67
2022-10-25T08:53:41.032Z,21.66
2022-10-25T08:56:16.693Z,21.66
2022-10-25T08:58:48.024Z,21.64
2022-10-25T09:01:21.396Z,21.62
2022-10-25T09:03:48.266Z,21.60
2022-10-25T09:06:33.701Z,21.59
2022-10-25T09:09:10.427Z,21.56
2022-10-25T09:11:37.394Z,21.54
2022-10-25T09:14:16.858Z,21.54
2022-10-25T09:17:03.299Z,21.51
2022-10-25T09:19:39.639Z,21.49
2022-10-25T09:22:11.735Z,21.46
2022-10-25T09:24:45.141Z,21.43
2022-10-25T09:27:11.830Z,21.43
2022-10-25T09:29:39.960Z,21.40
2022-10-25T09:32:16.643Z,21.41
2022-10-25T09:34:43.952Z,21.41
2022-10-25T09:37:16.472Z,21.47
2022-10-25T09:39:49.697Z,21.46
2022-10-25T09:42:25.435Z,21.39
2022-10-25T09:44:56.813Z,21.27
2022-10-25T09:47:29.521Z,21.19
2022-10-25T09:50:04.960Z,21.12
2022-10-25T09:52:40.374Z,21.17
2022-10-25T09:55:16.170Z,21.14
2022-10-25T09:57:43.194Z,21.14
2022-10-25T10:00:13.401Z,21.11
2022-10-25T10:02:40.359Z,21.03
2022-10-25T10:05:13.512Z,21.02
2022-10-25T10:07:41.298Z,21.03
2022-10-25T10:10:11.473Z,21.03
2022-10-25T10:12:41.151Z,21.04
2022-10-25T10:15:13.354Z,21.07
2022-10-25T10:17:40.052Z,21.07
2022-10-25T10:20:08.527Z,21.09
2022-10-25T10:22:37.729Z,21.10
2022-10-25T10:25:05.093Z,21.13
2022-10-25T10:27:32.875Z,21.13
2022-10-25T10:30:00.974Z,21.14
2022-10-25T10:32:30.506Z,21.15
2022-10-25T10:34:58.223Z,21.15
2022-10-25T10:37:26.004Z,21.16
2022-10-25T10:39:55.568Z,21.17
2022-10-25T10:42:23.645Z,21.19
2022-10-25T10:45:08.677Z,21.18
2022-10-25T10:47:35.935Z,21.17
2022-10-25T10:50:09.800Z,21.22
2022-10-25T10:52:44.105Z,21.20
2022-10-25T10:55:34.640Z,21.22
2022-10-25T10:58:07.536Z,21.24
2022-10-25T11:00:34.815Z,21.26
2022-10-25T11:03:01.502Z,21.27
2022-10-25T11:05:35.375Z,21.27
2022-10-25T11:08:17.367Z,21.28
2022-10-25T11:10:44.047Z,21.29
2022-10-25T11:13:16.217Z,21.31
2022-10-25T11:15:54.815Z,21.34
2022-10-25T11:18:28.296Z,21.32
2022-10-25T11:21:00.397Z,21.34
2022-10-25T11:23:41.192Z,21.33
2022-10-25T11:26:14.663Z,21.35
2022-10-25T11:28:58.570Z,21.54
2022-10-25T11:31:33.984Z,21.72
2022-10-25T11:34:19.471Z,21.76
2022-10-25T11:36:51.842Z,21.78
2022-10-25T11:39:56.767Z,21.79
2022-10-25T11:42:38.505Z,21.79
2022-10-25T11:45:20.507Z,21.78
2022-10-25T11:48:01.093Z,21.77
2022-10-25T11:50:34.281Z,21.80
2022-10-25T11:53:07.000Z,21.78
2022-10-25T11:55:36.761Z,21.85
2022-10-25T11:58:19.470Z,21.88
2022-10-25T12:00:52.040Z,21.89
2022-10-25T12:03:37.109Z,21.91
2022-10-25T12:06:17.413Z,21.89
2022-10-25T12:08:44.044Z,21.91
2022-10-25T12:11:17.925Z,21.87
2022-10-25T12:13:47.866Z,21.91
2022-10-25T12:16:16.209Z,21.89
2022-10-25T12:18:48.132Z,21.88
2022-10-25T12:21:24.402Z,21.89
2022-10-25T12:23:52.638Z,21.89
2022-10-25T12:26:35.865Z,21.88
2022-10-25T12:29:03.902Z,21.84
2022-10-25T12:31:37.113Z,21.83
2022-10-25T12:34:06.466Z,21.82
2022-10-25T12:36:38.534Z,21.78
2022-10-25T12:39:12.344Z,21.77
2022-10-25T12:41:40.457Z,21.75
2022-10-25T12:44:10.106Z,21.74
2022-10-25T12:46:59.919Z,21.72
2022-10-25T12:49:42.981Z,21.72
2022-10-25T12:52:28.230Z,21.67
2022-10-25T12:54:57.897Z,21.67
2022-10-25T12:57:27.914Z,21.68
2022-10-25T13:00:02.357Z,21.65
2022-10-25T13:02:35.210Z,21.66
2022-10-25T13:05:09.209Z,21.66
2022-10-25T13:07:36.845Z,21.67
2022-10-25T13:10:07.289Z,21.69
2022-10-25T13:12:34.013Z,21.68
2022-10-25T13:15:02.594Z,21.68
2022-10-25T13:17:48.423Z,21.67
2022-10-25T13:20:22.911Z,21.68
2022-10-25T13:22:49.841Z,21.67
2022-10-25T13:25:18.445Z,21.67
2022-10-25T13:28:05.334Z,21.66
2022-10-25T13:30:32.538Z,21.66
2022-10-25T13:33:38.746Z,21.65
2022-10-25T13:36:05.552Z,21.64
2022-10-25T13:38:38.835Z,21.63
2022-10-25T13:41:19.466Z,21.62
2022-10-25T13:43:58.727Z,21.60
2022-10-25T13:46:33.160Z,21.59
2022-10-25T13:49:02.201Z,21.57
2022-10-25T13:51:30.736Z,21.56
2022-10-25T13:54:01.422Z,21.54
2022-10-25T13:56:27.997Z,21.53
2022-10-25T13:58:55.717Z,21.52
2022-10-25T14:01:23.246Z,21.51
2022-10-25T14:04:02.119Z,21.50
2022-10-25T14:06:30.378Z,21.51
2022-10-25T14:09:08.876Z,21.50
2022-10-25T14:11:37.881Z,21.49
2022-10-25T14:14:14.303Z,21.48
2022-10-25T14:16:44.166Z,21.48
2022-10-25T14:19:16.149Z,21.47
2022-10-25T14:21:50.886Z,21.47
2022-10-25T14:24:17.926Z,21.47
2022-10-25T14:26:54.847Z,21.47
2022-10-25T14:29:22.508Z,21.46
2022-10-25T14:31:49.529Z,21.45
2022-10-25T14:34:27.095Z,21.44
2022-10-25T14:36:55.238Z,21.43
2022-10-25T14:39:23.125Z,21.42
2022-10-25T14:41:52.738Z,21.40
2022-10-25T14:44:42.350Z,21.41
2022-10-25T14:47:26.318Z,21.40
2022-10-25T14:49:53.064Z,21.40
2022-10-25T14:52:19.795Z,21.39
2022-10-25T14:54:48.137Z,21.37
2022-10-25T14:57:17.663Z,21.36
2022-10-25T14:59:50.110Z,21.34
2022-10-25T15:02:16.792Z,21.34
2022-10-25T15:04:46.006Z,21.32
2022-10-25T15:07:21.479Z,21.32
2022-10-25T15:09:48.761Z,21.31
2022-10-25T15:12:18.213Z,21.29
2022-10-25T15:14:46.734Z,21.29
2022-10-25T15:17:16.329Z,21.29
2022-10-25T15:22:49.690Z,21.27
2022-10-25T15:25:18.129Z,21.25
2022-10-25T15:27:47.979Z,21.26
2022-10-25T15:30:33.125Z,21.24
2022-10-25T15:32:59.873Z,21.24
2022-10-25T15:35:27.491Z,21.22
2022-10-25T15:37:55.657Z,21.23
2022-10-25T15:40:22.378Z,21.21
2022-10-25T15:42:49.197Z,21.20
2022-10-25T15:45:16.041Z,21.18
2022-10-25T15:47:45.114Z,21.19
2022-10-25T15:50:16.620Z,21.18
2022-10-25T15:52:43.616Z,21.17
2022-10-25T15:55:20.619Z,21.17
2022-10-25T15:57:47.581Z,21.16
2022-10-25T16:00:17.859Z,21.16
2022-10-25T16:02:45.498Z,21.16
2022-10-25T16:05:20.323Z,21.16
2022-10-25T16:07:46.938Z,21.15
2022-10-25T16:10:13.581Z,21.15
2022-10-25T16:12:40.538Z,21.15
2022-10-25T16:15:07.663Z,21.15
2022-10-25T16:17:34.649Z,21.14
2022-10-25T16:20:01.209Z,21.13
2022-10-25T16:22:27.889Z,21.14
2022-10-25T16:24:54.451Z,21.12
2022-10-25T16:27:21.110Z,21.08
2022-10-25T16:29:47.765Z,21.11
2022-10-25T16:32:14.417Z,21.12
2022-10-25T16:34:42.786Z,21.12
2022-10-25T16:37:11.835Z,21.12
2022-10-25T16:39:38.785Z,21.11
2022-10-25T16:42:05.546Z,21.11
2022-10-25T16:44:32.305Z,21.12
2022-10-25T16:47:00.134Z,21.11
2022-10-25T16:49:26.740Z,21.10
2022-10-25T16:51:53.446Z,21.10
2022-10-25T16:54:23.987Z,21.09
2022-10-25T16:56:51.174Z,21.09
2022-10-25T16:59:17.836Z,21.08
2022-10-25T17:01:45.118Z,21.08
2022-10-25T17:04:17.297Z,21.07
2022-10-25T17:06:43.876Z,21.06
2022-10-25T17:09:10.628Z,21.06
2022-10-25T17:11:37.282Z,21.04
2022-10-25T17:14:04.315Z,21.05
2022-10-25T17:16:31.098Z,21.05
2022-10-25T17:18:58.249Z,21.04
2022-10-25T17:21:24.844Z,21.03
2022-10-25T17:23:51.502Z,21.04
2022-10-25T17:26:18.136Z,21.03
2022-10-25T17:28:44.956Z,21.04
2022-10-25T17:31:12.923Z,21.04
2022-10-25T17:33:40.702Z,21.05
2022-10-25T17:36:11.976Z,21.07
2022-10-25T17:38:38.661Z,21.08
2022-10-25T17:41:05.378Z,21.11
2022-10-25T17:43:32.154Z,21.13
2022-10-25T17:46:02.568Z,21.12
2022-10-25T17:48:29.580Z,21.15
2022-10-25T17:51:22.304Z,21.17
2022-10-25T17:53:54.326Z,21.19
2022-10-25T17:56:22.117Z,21.20
2022-10-25T17:58:49.665Z,21.23
2022-10-25T18:01:18.144Z,21.25
2022-10-25T18:03:45.213Z,21.27
2022-10-25T18:06:12.838Z,21.29
2022-10-25T18:08:51.174Z,21.31
2022-10-25T18:11:28.686Z,21.33
2022-10-25T18:13:59.418Z,21.33
2022-10-25T18:16:27.324Z,21.35
2022-10-25T18:18:55.667Z,21.36
2022-10-25T18:21:22.416Z,21.39
2022-10-25T18:23:49.245Z,21.39
2022-10-25T18:26:18.562Z,21.41
2022-10-25T18:28:45.352Z,21.43
2022-10-25T18:31:12.957Z,21.44
2022-10-25T18:33:41.190Z,21.46
2022-10-25T18:36:10.097Z,21.48
2022-10-25T18:38:36.719Z,21.48
2022-10-25T18:41:07.386Z,21.47
2022-10-25T18:43:34.325Z,21.48
2022-10-25T18:46:01.201Z,21.50
2022-10-25T18:48:28.397Z,21.50
2022-10-25T18:50:55.050Z,21.50
2022-10-25T18:53:32.987Z,21.51
2022-10-25T18:55:59.623Z,21.53
2022-10-25T18:58:26.177Z,21.54
2022-10-25T19:00:52.940Z,21.53
2022-10-25T19:03:21.916Z,21.56
2022-10-25T19:05:53.039Z,21.57
2022-10-25T19:08:19.642Z,21.58
2022-10-25T19:10:47.377Z,21.63
2022-10-25T19:13:29.785Z,21.61
2022-10-25T19:15:57.292Z,21.60
2022-10-25T19:18:24.074Z,21.60
2022-10-25T19:20:50.803Z,21.59
2022-10-25T19:23:30.976Z,21.61
2022-10-25T19:25:57.568Z,21.63
2022-10-25T19:28:24.329Z,21.64
2022-10-25T19:30:51.031Z,21.63
2022-10-25T19:33:24.288Z,21.62
2022-10-25T19:35:50.845Z,21.65
2022-10-25T19:38:17.451Z,21.66
2022-10-25T19:40:44.685Z,21.66
2022-10-25T19:43:23.706Z,21.67
2022-10-25T19:45:56.107Z,21.67
2022-10-25T19:48:34.089Z,21.68
2022-10-25T19:51:08.805Z,21.67
2022-10-25T19:53:36.254Z,21.68
2022-10-25T19:56:08.569Z,21.68
2022-10-25T19:58:35.686Z,21.67
2022-10-25T20:01:05.276Z,21.67
2022-10-25T20:03:32.019Z,21.67
2022-10-25T20:06:00.052Z,21.68
2022-10-25T20:08:27.183Z,21.67
2022-10-25T20:10:54.744Z,21.67
2022-10-25T20:13:27.115Z,21.66
2022-10-25T20:15:55.709Z,21.66
2022-10-25T20:18:23.246Z,21.65
2022-10-25T20:20:53.092Z,21.66
2022-10-25T20:23:20.592Z,21.65
2022-10-25T20:25:47.229Z,21.64
2022-10-25T20:28:13.816Z,21.64
2022-10-25T20:30:41.255Z,21.62
2022-10-25T20:33:08.500Z,21.62
2022-10-25T20:35:35.906Z,21.62
2022-10-25T20:38:02.654Z,21.62
2022-10-25T20:40:29.271Z,21.60
2022-10-25T20:42:57.839Z,21.59
2022-10-25T20:45:28.679Z,21.60
2022-10-25T20:47:56.271Z,21.59
2022-10-25T20:50:23.676Z,21.56
2022-10-25T20:53:09.282Z,21.57
2022-10-25T20:55:36.623Z,21.57
2022-10-25T20:58:03.227Z,21.55
2022-10-25T21:00:30.209Z,21.54
2022-10-25T21:02:56.785Z,21.54
2022-10-25T21:05:23.383Z,21.53
2022-10-25T21:07:50.545Z,21.53
2022-10-25T21:10:17.314Z,21.53
2022-10-25T21:12:44.004Z,21.52
2022-10-25T21:15:12.094Z,21.51
2022-10-25T21:17:39.114Z,21.51
2022-10-25T21:20:06.062Z,21.50
2022-10-25T21:22:32.685Z,21.49
2022-10-25T21:24:59.784Z,21.48
2022-10-25T21:27:26.390Z,21.47
2022-10-25T21:29:53.173Z,21.46
2022-10-25T21:32:20.262Z,21.45
2022-10-25T21:34:47.189Z,21.43
2022-10-25T21:37:14.102Z,21.43
2022-10-25T21:39:40.717Z,21.41
2022-10-25T21:42:07.308Z,21.40
2022-10-25T21:44:33.915Z,21.40
2022-10-25T21:47:00.541Z,21.39
2022-10-25T21:49:27.177Z,21.38
2022-10-25T21:51:53.837Z,21.36
2022-10-25T21:54:22.191Z,21.34
2022-10-25T21:56:49.049Z,21.33
2022-10-25T21:59:25.306Z,21.32
2022-10-25T22:01:52.183Z,21.31
2022-10-25T22:04:18.930Z,21.31
2022-10-25T22:06:45.509Z,21.32
2022-10-25T22:09:12.226Z,21.32
2022-10-25T22:11:38.983Z,21.32
2022-10-25T22:14:07.069Z,21.31
2022-10-25T22:16:34.454Z,21.30
2022-10-25T22:19:12.992Z,21.29
2022-10-25T22:21:40.063Z,21.28
2022-10-25T22:24:08.622Z,21.28
2022-10-25T22:26:36.325Z,21.27
2022-10-25T22:29:03.464Z,21.25
2022-10-25T22:31:30.667Z,21.25
2022-10-25T22:33:58.852Z,21.24
2022-10-25T22:36:29.472Z,21.23
2022-10-25T22:38:57.163Z,21.22
2022-10-25T22:41:25.217Z,21.21
2022-10-25T22:43:52.184Z,21.20
2022-10-25T22:46:25.450Z,21.20
2022-10-25T22:48:53.343Z,21.19
2022-10-25T22:51:20.311Z,21.19
2022-10-25T22:53:47.156Z,21.18
2022-10-25T22:56:18.123Z,21.17
2022-10-25T22:58:48.827Z,21.17
2022-10-25T23:01:16.498Z,21.17
2022-10-25T23:03:47.359Z,21.16
2022-10-25T23:06:15.005Z,21.16
2022-10-25T23:08:42.062Z,21.14
2022-10-25T23:11:18.957Z,21.12
2022-10-25T23:13:45.851Z,21.13
2022-10-25T23:16:13.040Z,21.13
2022-10-25T23:18:39.792Z,21.14
2022-10-25T23:21:10.699Z,21.13
2022-10-25T23:23:40.995Z,21.14
2022-10-25T23:26:09.696Z,21.15
2022-10-25T23:28:36.294Z,21.15
2022-10-25T23:31:06.586Z,21.15
2022-10-25T23:33:33.620Z,21.16
2022-10-25T23:36:13.826Z,21.17
2022-10-25T23:38:40.420Z,21.15
2022-10-25T23:41:07.072Z,21.16
2022-10-25T23:43:34.279Z,21.16
2022-10-25T23:46:00.868Z,21.16
2022-10-25T23:48:27.611Z,21.16
2022-10-25T23:53:49.033Z,21.17
2022-10-25T23:56:15.686Z,21.18
2022-10-25T23:58:42.439Z,21.20
